Time,TemperatureF,DewpointF,PressureIn,WindDirection,WindDirectionDegrees,WindSpeedMPH,WindSpeedGustMPH,Humidity,HourlyPrecipIn,Conditions,Clouds,dailyrainin,SoftwareType,DateUTC
2013-04-08 00:00:00,47.1,42.5,30.13,SW,219,0.0,0.0,84,0.00,,,0.00,WeatherDisplay:10.37,2013-04-08 04:00:00,
2013-04-08 00:05:00,47.0,42.7,30.13,SW,219,0.0,0.0,85,0.00,,,0.00,WeatherDisplay:10.37,2013-04-08 04:05:00,
2013-04-08 00:10:00,47.1,42.8,30.13,SW,219,0.0,0.0,85,0.00,,,0.00,WeatherDisplay:10.37,2013-04-08 04:10:00,
2013-04-08 00:15:00,47.2,42.9,30.13,SW,219,0.0,0.0,85,0.00,,,0.00,WeatherDisplay:10.37,2013-04-08 04:15:00,
2013-04-08 00:20:00,47.1,42.5,30.13,SW,219,0.0,0.0,84,0.00,,,0.00,WeatherDisplay:10.37,2013-04-08 04:20:00,
2013-04-08 00:25:00,47.0,42.7,30.13,SW,219,0.0,0.0,85,0.00,,,0.00,WeatherDisplay:10.37,2013-04-08 04:25:00,
2013-04-08 00:30:00,46.8,42.5,30.13,SW,219,0.0,0.0,85,0.00,,,0.00,WeatherDisplay:10.37,2013-04-08 04:30:00,
2013-04-08 00:35:00,46.6,42.3,30.12,SW,219,0.0,0.0,85,0.00,,,0.00,WeatherDisplay:10.37,2013-04-08 04:35:00,
2013-04-08 00:41:00,46.4,42.1,30.13,SW,219,0.0,0.0,85,0.00,,,0.00,WeatherDisplay:10.37,2013-04-08 04:41:00,
2013-04-08 00:46:00,46.1,42.1,30.13,SW,219,0.0,0.0,86,0.00,,,0.00,WeatherDisplay:10.37,2013-04-08 04:46:00,
2013-04-08 00:51:00,45.9,41.9,30.13,SW,219,0.0,0.0,86,0.00,,,0.00,WeatherDisplay:10.37,2013-04-08 04:51:00,
2013-04-08 00:57:00,45.8,42.4,30.13,SW,219,0.0,0.0,88,0.00,,,0.00,WeatherDisplay:10.37,2013-04-08 04:57:00,
2013-04-08 01:02:00,45.9,42.5,30.13,SW,219,0.0,0.0,88,0.00,,,0.00,WeatherDisplay:10.37,2013-04-08 05:02:00,
2013-04-08 01:07:00,45.8,42.4,30.13,SW,219,0.0,0.0,88,0.00,,,0.00,WeatherDisplay:10.37,2013-04-08 05:07:00,
2013-04-08 01:12:00,45.8,42.4,30.13,SW,219,0.0,0.0,88,0.00,,,0.00,WeatherDisplay:10.37,2013-04-08 05:12:00,
2013-04-08 01:17:00,45.7,42.1,30.12,SW,219,0.0,0.0,87,0.00,,,0.00,WeatherDisplay:10.37,2013-04-08 05:17:00,
2013-04-08 01:22:00,45.5,41.9,30.12,SW,219,0.0,0.0,87,0.00,,,0.00,WeatherDisplay:10.37,2013-04-08 05:22:00,
2013-04-08 01:27:00,45.2,41.9,30.12,SW,219,0.0,0.0,88,0.00,,,0.00,WeatherDisplay:10.37,2013-04-08 05:27:00,
2013-04-08 01:32:00,45.0,41.7,30.13,SW,219,0.0,0.0,88,0.00,,,0.00,WeatherDisplay:10.37,2013-04-08 05:32:00,
2013-04-08 01:37:00,45.0,42.0,30.13,SW,219,0.0,0.0,89,0.00,,,0.00,WeatherDisplay:10.37,2013-04-08 05:37:00,
2013-04-08 01:42:00,44.8,42.0,30.13,SW,219,0.0,0.0,90,0.00,,,0.00,WeatherDisplay:10.37,2013-04-08 05:42:00,
2013-04-08 01:47:00,44.7,41.9,30.13,SW,219,0.0,0.0,90,0.00,,,0.00,WeatherDisplay:10.37,2013-04-08 05:47:00,
2013-04-08 01:52:00,44.5,41.7,30.13,SW,219,0.0,0.0,90,0.00,,,0.00,WeatherDisplay:10.37,2013-04-08 05:52:00,
2013-04-08 01:57:00,44.4,41.7,30.12,SW,219,0.0,0.0,90,0.00,,,0.00,WeatherDisplay:10.37,2013-04-08 05:57:00,
2013-04-08 02:02:00,44.5,42.0,30.12,SW,219,0.0,0.0,91,0.00,,,0.00,WeatherDisplay:10.37,2013-04-08 06:02:00,
2013-04-08 02:07:00,44.5,42.0,30.12,SW,219,0.0,0.0,91,0.00,,,0.00,WeatherDisplay:10.37,2013-04-08 06:07:00,
2013-04-08 02:12:00,44.6,42.1,30.12,SW,219,0.0,0.0,91,0.00,,,0.00,WeatherDisplay:10.37,2013-04-08 06:12:00,
2013-04-08 02:17:00,44.5,41.7,30.12,SW,219,0.0,0.0,90,0.00,,,0.00,WeatherDisplay:10.37,2013-04-08 06:17:00,
2013-04-08 02:22:00,44.3,41.6,30.12,SW,219,0.0,0.0,90,0.00,,,0.00,WeatherDisplay:10.37,2013-04-08 06:22:00,
2013-04-08 02:27:00,44.2,41.5,30.12,SW,219,0.0,0.0,90,0.00,,,0.00,WeatherDisplay:10.37,2013-04-08 06:27:00,
2013-04-08 02:32:00,44.0,41.5,30.11,SW,219,0.0,0.0,91,0.00,,,0.00,WeatherDisplay:10.37,2013-04-08 06:32:00,
2013-04-08 02:37:00,43.9,41.4,30.11,SW,219,0.0,0.0,91,0.00,,,0.00,WeatherDisplay:10.37,2013-04-08 06:37:00,
2013-04-08 02:42:00,43.8,41.3,30.11,SW,219,0.0,0.0,91,0.00,,,0.00,WeatherDisplay:10.37,2013-04-08 06:42:00,
2013-04-08 02:47:00,43.6,41.1,30.11,SW,219,0.0,0.0,91,0.00,,,0.00,WeatherDisplay:10.37,2013-04-08 06:47:00,
2013-04-08 02:52:00,43.6,41.1,30.11,SW,219,0.0,0.0,91,0.00,,,0.00,WeatherDisplay:10.37,2013-04-08 06:52:00,
2013-04-08 02:57:00,43.4,40.9,30.11,SW,219,0.0,0.0,91,0.00,,,0.00,WeatherDisplay:10.37,2013-04-08 06:57:00,
2013-04-08 03:02:00,43.2,40.8,30.11,SW,219,0.0,0.0,91,0.00,,,0.00,WeatherDisplay:10.37,2013-04-08 07:02:00,
2013-04-08 03:07:00,43.2,41.0,30.11,SW,219,0.0,0.0,92,0.00,,,0.00,WeatherDisplay:10.37,2013-04-08 07:07:00,
2013-04-08 03:12:00,43.3,41.1,30.10,SW,219,0.0,0.0,92,0.00,,,0.00,WeatherDisplay:10.37,2013-04-08 07:12:00,
2013-04-08 03:17:00,43.3,41.4,30.10,SW,219,0.0,0.0,93,0.00,,,0.00,WeatherDisplay:10.37,2013-04-08 07:17:00,
2013-04-08 03:23:00,43.3,41.4,30.10,SW,219,0.0,0.0,93,0.00,,,0.00,WeatherDisplay:10.37,2013-04-08 07:23:00,
2013-04-08 03:28:00,43.3,41.4,30.10,SW,219,0.0,0.0,93,0.00,,,0.00,WeatherDisplay:10.37,2013-04-08 07:28:00,
2013-04-08 03:33:00,43.2,41.3,30.10,SW,219,0.0,0.0,93,0.00,,,0.00,WeatherDisplay:10.37,2013-04-08 07:33:00,
2013-04-08 03:38:00,43.0,40.8,30.11,SW,219,0.0,0.0,92,0.00,,,0.00,WeatherDisplay:10.37,2013-04-08 07:38:00,
2013-04-08 03:43:00,42.8,40.6,30.11,SW,219,0.0,0.0,92,0.00,,,0.00,WeatherDisplay:10.37,2013-04-08 07:43:00,
2013-04-08 03:48:00,42.7,40.8,30.11,SW,219,0.0,0.0,93,0.00,,,0.00,WeatherDisplay:10.37,2013-04-08 07:48:00,
2013-04-08 03:53:00,42.7,40.8,30.11,SW,219,0.0,0.0,93,0.00,,,0.00,WeatherDisplay:10.37,2013-04-08 07:53:00,
2013-04-08 03:58:00,42.7,40.8,30.11,SW,219,0.0,0.0,93,0.00,,,0.00,WeatherDisplay:10.37,2013-04-08 07:58:00,
2013-04-08 04:03:00,42.7,40.8,30.11,SW,219,0.0,0.0,93,0.00,,,0.00,WeatherDisplay:10.37,2013-04-08 08:03:00,
2013-04-08 04:08:00,42.6,40.7,30.11,SW,219,0.0,0.0,93,0.00,,,0.00,WeatherDisplay:10.37,2013-04-08 08:08:00,
2013-04-08 04:13:00,42.6,40.7,30.11,SW,219,0.0,0.0,93,0.00,,,0.00,WeatherDisplay:10.37,2013-04-08 08:13:00,
2013-04-08 04:18:00,42.6,41.0,30.12,SW,219,0.0,0.0,94,0.00,,,0.00,WeatherDisplay:10.37,2013-04-08 08:18:00,
2013-04-08 04:23:00,42.7,41.1,30.12,SW,219,0.0,0.0,94,0.00,,,0.00,WeatherDisplay:10.37,2013-04-08 08:23:00,
2013-04-08 04:28:00,42.7,41.1,30.12,SW,219,0.0,0.0,94,0.00,,,0.00,WeatherDisplay:10.37,2013-04-08 08:28:00,
2013-04-08 04:33:00,42.9,41.3,30.12,SW,219,0.0,0.0,94,0.00,,,0.00,WeatherDisplay:10.37,2013-04-08 08:33:00,
2013-04-08 04:38:00,43.0,41.4,30.12,SW,219,0.0,0.0,94,0.00,,,0.00,WeatherDisplay:10.37,2013-04-08 08:38:00,
2013-04-08 04:43:00,43.0,41.4,30.12,SW,219,0.0,0.0,94,0.00,,,0.00,WeatherDisplay:10.37,2013-04-08 08:43:00,
2013-04-08 04:48:00,43.0,41.4,30.12,SW,219,0.0,0.0,94,0.00,,,0.00,WeatherDisplay:10.37,2013-04-08 08:48:00,
2013-04-08 04:53:00,42.9,41.3,30.12,SW,219,0.0,0.0,94,0.00,,,0.00,WeatherDisplay:10.37,2013-04-08 08:53:00,
2013-04-08 04:58:00,42.9,41.3,30.12,SW,219,0.0,0.0,94,0.00,,,0.00,WeatherDisplay:10.37,2013-04-08 08:58:00,
2013-04-08 05:03:00,42.7,41.1,30.12,SW,219,0.0,0.0,94,0.00,,,0.00,WeatherDisplay:10.37,2013-04-08 09:03:00,
2013-04-08 05:08:00,42.6,41.0,30.12,SW,219,0.0,0.0,94,0.00,,,0.00,WeatherDisplay:10.37,2013-04-08 09:08:00,
2013-04-08 05:13:00,42.4,40.5,30.12,SW,219,0.0,0.0,93,0.00,,,0.00,WeatherDisplay:10.37,2013-04-08 09:13:00,
2013-04-08 05:18:00,42.2,40.3,30.12,SW,219,0.0,0.0,93,0.00,,,0.00,WeatherDisplay:10.37,2013-04-08 09:18:00,
2013-04-08 05:23:00,42.0,40.4,30.12,SW,219,0.0,0.0,94,0.00,,,0.00,WeatherDisplay:10.37,2013-04-08 09:23:00,
2013-04-08 05:29:00,42.1,40.5,30.12,SW,219,0.0,0.0,94,0.00,,,0.00,WeatherDisplay:10.37,2013-04-08 09:29:00,
2013-04-08 05:34:00,42.1,40.5,30.12,SW,219,0.0,0.0,94,0.00,,,0.00,WeatherDisplay:10.37,2013-04-08 09:34:00,
2013-04-08 05:39:00,42.1,40.5,30.12,SW,219,0.0,0.0,94,0.00,,,0.00,WeatherDisplay:10.37,2013-04-08 09:39:00,
2013-04-08 05:44:00,42.1,40.5,30.12,SW,219,0.0,0.0,94,0.00,,,0.00,WeatherDisplay:10.37,2013-04-08 09:44:00,
2013-04-08 05:49:00,42.1,40.5,30.12,SW,219,0.0,0.0,94,0.00,,,0.00,WeatherDisplay:10.37,2013-04-08 09:49:00,
2013-04-08 05:54:00,41.9,40.3,30.12,SW,219,0.0,0.0,94,0.00,,,0.00,WeatherDisplay:10.37,2013-04-08 09:54:00,
2013-04-08 05:59:00,41.6,40.0,30.12,SW,219,0.0,0.0,94,0.00,,,0.00,WeatherDisplay:10.37,2013-04-08 09:59:00,
2013-04-08 06:05:00,41.6,40.0,30.12,SW,219,0.0,0.0,94,0.00,,,0.00,WeatherDisplay:10.37,2013-04-08 10:05:00,
2013-04-08 06:10:00,41.5,39.9,30.12,SW,219,0.0,0.0,94,0.00,,,0.00,WeatherDisplay:10.37,2013-04-08 10:10:00,
2013-04-08 06:15:00,41.4,39.8,30.13,SW,219,0.0,0.0,94,0.00,,,0.00,WeatherDisplay:10.37,2013-04-08 10:15:00,
2013-04-08 06:20:00,41.5,40.2,30.12,SW,219,0.0,0.0,95,0.00,,,0.00,WeatherDisplay:10.37,2013-04-08 10:20:00,
2013-04-08 06:25:00,41.4,40.1,30.13,SW,219,0.0,0.0,95,0.00,,,0.00,WeatherDisplay:10.37,2013-04-08 10:25:00,
2013-04-08 06:30:00,41.3,39.7,30.13,SW,219,0.0,0.0,94,0.00,,,0.00,WeatherDisplay:10.37,2013-04-08 10:30:00,
2013-04-08 06:35:00,41.3,40.0,30.13,SW,219,0.0,0.0,95,0.00,,,0.00,WeatherDisplay:10.37,2013-04-08 10:35:00,
2013-04-08 06:40:00,41.4,40.1,30.13,SW,219,0.0,0.0,95,0.00,,,0.00,WeatherDisplay:10.37,2013-04-08 10:40:00,
2013-04-08 06:45:00,41.3,40.0,30.14,SW,219,0.0,0.0,95,0.00,,,0.00,WeatherDisplay:10.37,2013-04-08 10:45:00,
2013-04-08 06:50:00,41.1,39.8,30.14,SW,219,0.0,0.0,95,0.00,,,0.00,WeatherDisplay:10.37,2013-04-08 10:50:00,
2013-04-08 06:55:00,41.1,39.8,30.14,SW,219,0.0,0.0,95,0.00,,,0.00,WeatherDisplay:10.37,2013-04-08 10:55:00,
2013-04-08 07:00:00,41.1,39.8,30.14,SW,219,0.0,0.0,95,0.00,,,0.00,WeatherDisplay:10.37,2013-04-08 11:00:00,
2013-04-08 07:05:00,41.2,39.9,30.14,SW,219,0.0,0.0,95,0.00,CLR,,0.00,WeatherDisplay:10.37,2013-04-08 11:05:00,
2013-04-08 07:10:00,41.3,40.0,30.15,SW,219,0.0,0.0,95,0.00,CLR,,0.00,WeatherDisplay:10.37,2013-04-08 11:10:00,
2013-04-08 07:15:00,41.4,40.1,30.15,SW,219,0.0,0.0,95,0.00,CLR,,0.00,WeatherDisplay:10.37,2013-04-08 11:15:00,
2013-04-08 07:20:00,41.4,40.1,30.15,SW,219,0.0,0.0,95,0.00,CLR,,0.00,WeatherDisplay:10.37,2013-04-08 11:20:00,
2013-04-08 07:25:00,41.2,39.9,30.15,SW,219,0.0,0.0,95,0.00,CLR,,0.00,WeatherDisplay:10.37,2013-04-08 11:25:00,
2013-04-08 07:30:00,41.1,39.8,30.15,SW,219,0.0,0.0,95,0.00,CLR,,0.00,WeatherDisplay:10.37,2013-04-08 11:30:00,
2013-04-08 07:35:00,41.1,39.8,30.15,SW,219,0.0,0.0,95,0.00,CLR,,0.00,WeatherDisplay:10.37,2013-04-08 11:35:00,
2013-04-08 07:40:00,40.9,39.6,30.15,SW,219,0.0,0.0,95,0.00,CLR,,0.00,WeatherDisplay:10.37,2013-04-08 11:40:00,
2013-04-08 07:45:00,40.9,39.6,30.15,SW,219,0.0,0.0,95,0.00,CLR,,0.00,WeatherDisplay:10.37,2013-04-08 11:45:00,
2013-04-08 07:51:00,40.9,39.6,30.16,SW,219,0.0,0.0,95,0.00,CLR,,0.00,WeatherDisplay:10.37,2013-04-08 11:51:00,
2013-04-08 07:57:00,41.1,39.8,30.16,SW,219,0.0,0.0,95,0.00,CLR,,0.00,WeatherDisplay:10.37,2013-04-08 11:57:00,
2013-04-08 08:02:00,41.4,40.3,30.16,SW,219,0.0,0.0,96,0.00,CLR,,0.00,WeatherDisplay:10.37,2013-04-08 12:02:00,
2013-04-08 08:07:00,41.9,40.8,30.16,SW,219,0.0,0.0,96,0.00,CLR,,0.00,WeatherDisplay:10.37,2013-04-08 12:07:00,
2013-04-08 08:12:00,42.6,41.5,30.16,SW,219,0.1,1.2,96,0.00,CLR,,0.00,WeatherDisplay:10.37,2013-04-08 12:12:00,
2013-04-08 08:17:00,43.4,42.6,30.17,WSW,254,0.7,1.2,97,0.00,CLR,,0.00,WeatherDisplay:10.37,2013-04-08 12:17:00,
2013-04-08 08:22:00,44.2,43.4,30.17,WSW,254,0.0,1.2,97,0.00,CLR,,0.00,WeatherDisplay:10.37,2013-04-08 12:22:00,
2013-04-08 08:27:00,44.7,43.9,30.16,WSW,254,0.0,0.0,97,0.00,CLR,,0.00,WeatherDisplay:10.37,2013-04-08 12:27:00,
2013-04-08 08:33:00,45.1,44.3,30.16,WSW,254,0.0,2.3,97,0.00,CLR,,0.00,WeatherDisplay:10.37,2013-04-08 12:33:00,
2013-04-08 08:38:00,45.5,44.7,30.16,WSW,254,0.0,1.2,97,0.00,CLR,,0.00,WeatherDisplay:10.37,2013-04-08 12:38:00,
2013-04-08 08:43:00,45.9,45.1,30.16,WSW,254,0.0,0.0,97,0.00,CLR,,0.00,WeatherDisplay:10.37,2013-04-08 12:43:00,
2013-04-08 08:48:00,46.6,45.8,30.16,WSW,254,0.0,0.0,97,0.00,CLR,,0.00,WeatherDisplay:10.37,2013-04-08 12:48:00,
2013-04-08 08:54:00,47.5,46.7,30.16,WSW,254,0.0,0.0,97,0.00,CLR,,0.00,WeatherDisplay:10.37,2013-04-08 12:54:00,
2013-04-08 08:59:00,48.7,47.9,30.16,WSW,254,0.0,0.0,97,0.00,CLR,,0.00,WeatherDisplay:10.37,2013-04-08 12:59:00,
2013-04-08 09:04:00,49.5,48.7,30.16,WSW,254,0.0,0.0,97,0.00,CLR,,0.00,WeatherDisplay:10.37,2013-04-08 13:04:00,
2013-04-08 09:10:00,50.4,49.3,30.16,WSW,254,0.0,0.0,96,0.00,CLR,,0.00,WeatherDisplay:10.37,2013-04-08 13:10:00,
2013-04-08 09:15:00,51.5,50.1,30.16,WSW,254,0.0,0.0,95,0.00,CLR,,0.00,WeatherDisplay:10.37,2013-04-08 13:15:00,
2013-04-08 09:20:00,52.4,50.4,30.16,WSW,254,0.0,0.0,93,0.00,CLR,,0.00,WeatherDisplay:10.37,2013-04-08 13:20:00,
2013-04-08 09:25:00,53.5,51.2,30.16,WSW,254,0.0,0.0,92,0.00,CLR,,0.00,WeatherDisplay:10.37,2013-04-08 13:25:00,
2013-04-08 09:30:00,54.4,51.2,30.16,WSW,254,0.0,0.0,89,0.00,CLR,,0.00,WeatherDisplay:10.37,2013-04-08 13:30:00,
2013-04-08 09:35:00,55.5,51.7,30.16,WSW,254,0.0,0.0,87,0.00,CLR,,0.00,WeatherDisplay:10.37,2013-04-08 13:35:00,
2013-04-08 09:40:00,56.6,51.2,30.16,WSW,254,0.0,0.0,82,0.00,CLR,,0.00,WeatherDisplay:10.37,2013-04-08 13:40:00,
2013-04-08 09:46:00,58.0,50.8,30.16,WSW,254,0.0,0.0,77,0.00,CLR,,0.00,WeatherDisplay:10.37,2013-04-08 13:46:00,
2013-04-08 09:51:00,59.0,51.1,30.15,WSW,254,0.0,0.0,75,0.00,CLR,,0.00,WeatherDisplay:10.37,2013-04-08 13:51:00,
2013-04-08 09:56:00,60.1,51.0,30.15,WSW,254,0.0,0.0,72,0.00,CLR,,0.00,WeatherDisplay:10.37,2013-04-08 13:56:00,
2013-04-08 10:01:00,61.0,51.1,30.15,WSW,254,0.1,1.2,70,0.00,CLR,,0.00,WeatherDisplay:10.37,2013-04-08 14:01:00,
2013-04-08 10:06:00,61.6,52.1,30.15,WSW,256,0.0,0.0,71,0.00,CLR,,0.00,WeatherDisplay:10.37,2013-04-08 14:06:00,
2013-04-08 10:11:00,62.3,52.8,30.15,SW,231,2.7,7.0,71,0.00,CLR,,0.00,WeatherDisplay:10.37,2013-04-08 14:11:00,
2013-04-08 10:16:00,63.0,52.7,30.15,SW,223,3.2,6.0,69,0.00,CLR,,0.00,WeatherDisplay:10.37,2013-04-08 14:16:00,
2013-04-08 10:22:00,63.5,53.1,30.15,WSW,252,0.9,3.5,69,0.00,CLR,,0.00,WeatherDisplay:10.37,2013-04-08 14:22:00,
2013-04-08 10:27:00,63.6,53.2,30.15,WSW,257,1.1,4.6,69,0.00,CLR,,0.00,WeatherDisplay:10.37,2013-04-08 14:27:00,
2013-04-08 10:32:00,63.9,52.7,30.15,WSW,252,0.0,1.2,67,0.00,CLR,,0.00,WeatherDisplay:10.37,2013-04-08 14:32:00,
2013-04-08 10:37:00,64.4,53.6,30.15,WSW,256,4.2,7.0,68,0.00,CLR,,0.00,WeatherDisplay:10.37,2013-04-08 14:37:00,
2013-04-08 10:42:00,64.9,53.3,30.15,SW,223,7.3,10.4,66,0.00,CLR,,0.00,WeatherDisplay:10.37,2013-04-08 14:42:00,
2013-04-08 10:47:00,65.3,54.1,30.15,West,269,8.6,10.4,67,0.00,CLR,,0.00,WeatherDisplay:10.37,2013-04-08 14:47:00,
2013-04-08 10:52:00,65.6,54.3,30.15,SSW,206,3.5,6.0,67,0.00,CLR,,0.00,WeatherDisplay:10.37,2013-04-08 14:52:00,
2013-04-08 10:57:00,66.0,54.3,30.15,West,262,2.2,6.9,66,0.00,CLR,,0.00,WeatherDisplay:10.37,2013-04-08 14:57:00,
2013-04-08 11:02:00,66.4,54.7,30.15,SSE,161,1.1,5.8,66,0.00,CLR,,0.00,WeatherDisplay:10.37,2013-04-08 15:02:00,
2013-04-08 11:07:00,66.6,54.0,30.15,SSW,203,2.6,5.8,64,0.00,CLR,,0.00,WeatherDisplay:10.37,2013-04-08 15:07:00,
2013-04-08 11:12:00,67.0,54.4,30.15,SSE,160,4.1,6.9,64,0.00,CLR,,0.00,WeatherDisplay:10.37,2013-04-08 15:12:00,
2013-04-08 11:17:00,67.0,54.0,30.14,South,190,6.1,11.5,63,0.00,CLR,,0.00,WeatherDisplay:10.37,2013-04-08 15:17:00,
2013-04-08 11:22:00,67.1,53.6,30.14,South,177,8.0,11.5,62,0.00,CLR,,0.00,WeatherDisplay:10.37,2013-04-08 15:22:00,
2013-04-08 11:27:00,67.1,54.1,30.14,SSW,193,8.6,15.0,63,0.00,CLR,,0.00,WeatherDisplay:10.37,2013-04-08 15:27:00,
2013-04-08 11:33:00,66.9,53.5,30.14,SSE,167,2.2,4.6,62,0.00,CLR,,0.00,WeatherDisplay:10.37,2013-04-08 15:33:00,
2013-04-08 11:38:00,66.6,54.0,30.14,SW,224,1.9,3.5,64,0.00,CLR,,0.00,WeatherDisplay:10.37,2013-04-08 15:38:00,
2013-04-08 11:43:00,66.4,53.8,30.14,South,191,2.0,4.6,64,0.00,CLR,,0.00,WeatherDisplay:10.37,2013-04-08 15:43:00,
2013-04-08 11:48:00,66.2,53.2,30.15,SSW,208,8.3,12.0,63,0.00,CLR,,0.00,WeatherDisplay:10.37,2013-04-08 15:48:00,
2013-04-08 11:53:00,66.3,53.8,30.15,South,181,8.5,11.5,64,0.00,CLR,,0.00,WeatherDisplay:10.37,2013-04-08 15:53:00,
2013-04-08 11:58:00,66.9,53.9,30.15,SSW,194,2.2,6.9,63,0.00,CLR,,0.00,WeatherDisplay:10.37,2013-04-08 15:58:00,
2013-04-08 12:03:00,66.9,53.0,30.14,South,177,5.3,11.5,61,0.00,CLR,,0.00,WeatherDisplay:10.37,2013-04-08 16:03:00,
2013-04-08 12:08:00,67.0,54.0,30.14,South,172,8.0,12.0,63,0.00,CLR,,0.00,WeatherDisplay:10.37,2013-04-08 16:08:00,
2013-04-08 12:13:00,67.6,54.1,30.14,WSW,242,5.2,5.8,62,0.00,CLR,,0.00,WeatherDisplay:10.37,2013-04-08 16:13:00,
2013-04-08 12:18:00,68.2,52.4,30.13,SW,223,6.0,9.2,57,0.00,CLR,,0.00,WeatherDisplay:10.37,2013-04-08 16:18:00,
2013-04-08 12:23:00,68.0,52.7,30.13,SSW,196,7.0,10.4,58,0.00,CLR,,0.00,WeatherDisplay:10.37,2013-04-08 16:23:00,
2013-04-08 12:28:00,67.5,52.7,30.13,WSW,240,3.3,10.4,59,0.00,CLR,,0.00,WeatherDisplay:10.37,2013-04-08 16:28:00,
2013-04-08 12:33:00,67.9,52.6,30.13,SSW,212,9.1,15.0,58,0.00,CLR,,0.00,WeatherDisplay:10.37,2013-04-08 16:33:00,
2013-04-08 12:38:00,67.9,52.1,30.13,SSE,167,7.9,16.1,57,0.00,CLR,,0.00,WeatherDisplay:10.37,2013-04-08 16:38:00,
2013-04-08 12:43:00,67.8,52.0,30.13,SW,217,7.1,19.6,57,0.00,CLR,,0.00,WeatherDisplay:10.37,2013-04-08 16:43:00,
2013-04-08 12:48:00,67.9,52.6,30.13,SW,215,7.6,15.0,58,0.00,CLR,,0.00,WeatherDisplay:10.37,2013-04-08 16:48:00,
2013-04-08 12:53:00,68.4,52.1,30.13,SSW,206,11.2,17.3,56,0.00,CLR,,0.00,WeatherDisplay:10.37,2013-04-08 16:53:00,
2013-04-08 12:58:00,68.5,51.7,30.13,South,182,11.8,17.3,55,0.00,CLR,,0.00,WeatherDisplay:10.37,2013-04-08 16:58:00,
2013-04-08 13:03:00,68.5,52.7,30.13,SSW,202,9.4,16.1,57,0.00,CLR,,0.00,WeatherDisplay:10.37,2013-04-08 17:03:00,
2013-04-08 13:08:00,68.3,53.4,30.12,South,171,3.0,5.0,59,0.00,CLR,,0.00,WeatherDisplay:10.37,2013-04-08 17:08:00,
2013-04-08 13:13:00,68.7,54.3,30.12,SW,227,4.7,11.5,60,0.00,CLR,,0.00,WeatherDisplay:10.37,2013-04-08 17:13:00,
2013-04-08 13:18:00,69.0,54.5,30.13,South,179,8.9,15.0,60,0.00,CLR,,0.00,WeatherDisplay:10.37,2013-04-08 17:18:00,
2013-04-08 13:23:00,68.3,52.5,30.13,South,182,9.4,15.0,57,0.00,CLR,,0.00,WeatherDisplay:10.37,2013-04-08 17:23:00,
2013-04-08 13:28:00,68.4,53.0,30.12,South,189,10.2,17.3,58,0.00,CLR,,0.00,WeatherDisplay:10.37,2013-04-08 17:28:00,
2013-04-08 13:33:00,69.0,55.0,30.11,South,183,5.9,12.7,61,0.00,CLR,,0.00,WeatherDisplay:10.37,2013-04-08 17:33:00,
2013-04-08 13:38:00,68.6,53.2,30.12,SSE,160,8.7,17.3,58,0.00,CLR,,0.00,WeatherDisplay:10.37,2013-04-08 17:38:00,
2013-04-08 13:43:00,68.3,53.4,30.12,South,176,6.4,13.8,59,0.00,CLR,,0.00,WeatherDisplay:10.37,2013-04-08 17:43:00,
2013-04-08 13:49:00,69.2,53.8,30.11,SSW,212,11.1,17.0,58,0.00,CLR,,0.00,WeatherDisplay:10.37,2013-04-08 17:49:00,
2013-04-08 13:54:00,69.0,52.6,30.11,SSW,196,14.7,21.9,56,0.00,CLR,,0.00,WeatherDisplay:10.37,2013-04-08 17:54:00,
2013-04-08 13:59:00,68.9,53.5,30.11,SSW,210,8.1,16.1,58,0.00,CLR,,0.00,WeatherDisplay:10.37,2013-04-08 17:59:00,
2013-04-08 14:04:00,69.1,52.7,30.11,SSW,196,9.7,15.0,56,0.00,CLR,,0.00,WeatherDisplay:10.37,2013-04-08 18:04:00,
2013-04-08 14:09:00,69.0,53.1,30.10,South,175,10.7,19.6,57,0.00,CLR,,0.00,WeatherDisplay:10.37,2013-04-08 18:09:00,
2013-04-08 14:14:00,69.2,51.8,30.10,SW,229,14.1,27.6,54,0.00,CLR,,0.00,WeatherDisplay:10.37,2013-04-08 18:14:00,
2013-04-08 14:19:00,69.7,52.8,30.10,South,175,8.7,16.0,55,0.00,CLR,,0.00,WeatherDisplay:10.37,2013-04-08 18:19:00,
2013-04-08 14:24:00,69.7,51.8,30.11,SSW,209,9.8,13.8,53,0.00,CLR,,0.00,WeatherDisplay:10.37,2013-04-08 18:24:00,
2013-04-08 14:29:00,69.5,51.6,30.11,South,181,13.3,17.3,53,0.00,CLR,,0.00,WeatherDisplay:10.37,2013-04-08 18:29:00,
2013-04-08 14:34:00,69.4,52.0,30.11,SSW,194,13.8,24.2,54,0.00,CLR,,0.00,WeatherDisplay:10.37,2013-04-08 18:34:00,
2013-04-08 14:40:00,69.2,51.3,30.11,SSW,197,14.3,20.7,53,0.00,CLR,,0.00,WeatherDisplay:10.37,2013-04-08 18:40:00,
2013-04-08 14:45:00,69.1,52.2,30.11,South,178,13.1,19.6,55,0.00,CLR,,0.00,WeatherDisplay:10.37,2013-04-08 18:45:00,
2013-04-08 14:50:00,69.1,53.7,30.10,South,179,3.3,11.5,58,0.00,CLR,,0.00,WeatherDisplay:10.37,2013-04-08 18:50:00,
2013-04-08 14:55:00,69.9,52.5,30.10,SW,221,10.5,16.0,54,0.00,CLR,,0.00,WeatherDisplay:10.37,2013-04-08 18:55:00,
2013-04-08 15:00:00,70.0,52.6,30.09,SSW,200,5.7,17.3,54,0.00,CLR,,0.00,WeatherDisplay:10.37,2013-04-08 19:00:00,
2013-04-08 15:05:00,70.3,51.8,30.09,SSW,209,10.5,13.8,52,0.00,CLR,,0.00,WeatherDisplay:10.37,2013-04-08 19:05:00,
2013-04-08 15:10:00,70.3,51.8,30.09,SSW,192,14.4,21.9,52,0.00,CLR,,0.00,WeatherDisplay:10.37,2013-04-08 19:10:00,
2013-04-08 15:15:00,70.1,51.7,30.09,SSW,192,11.6,15.0,52,0.00,CLR,,0.00,WeatherDisplay:10.37,2013-04-08 19:15:00,
2013-04-08 15:20:00,70.3,51.8,30.09,SW,229,12.1,19.6,52,0.00,CLR,,0.00,WeatherDisplay:10.37,2013-04-08 19:20:00,
2013-04-08 15:25:00,70.3,51.3,30.08,SW,223,6.5,15.0,51,0.00,CLR,,0.00,WeatherDisplay:10.37,2013-04-08 19:25:00,
2013-04-08 15:30:00,70.7,51.1,30.08,SSW,210,9.3,16.1,50,0.00,CLR,,0.00,WeatherDisplay:10.37,2013-04-08 19:30:00,
2013-04-08 15:35:00,70.9,51.9,30.08,SW,216,10.4,15.0,51,0.00,CLR,,0.00,WeatherDisplay:10.37,2013-04-08 19:35:00,
2013-04-08 15:40:00,71.0,53.0,30.08,SW,234,5.3,11.5,53,0.00,CLR,,0.00,WeatherDisplay:10.37,2013-04-08 19:40:00,
2013-04-08 15:45:00,71.3,51.7,30.08,SSW,201,9.8,18.4,50,0.00,CLR,,0.00,WeatherDisplay:10.37,2013-04-08 19:45:00,
2013-04-08 15:50:00,70.9,51.9,30.08,SW,234,9.3,12.7,51,0.00,CLR,,0.00,WeatherDisplay:10.37,2013-04-08 19:50:00,
2013-04-08 15:56:00,70.6,52.6,30.08,SSW,200,4.6,13.8,53,0.00,CLR,,0.00,WeatherDisplay:10.37,2013-04-08 19:56:00,
2013-04-08 16:01:00,70.7,51.7,30.08,SW,235,9.2,12.0,51,0.00,CLR,,0.00,WeatherDisplay:10.37,2013-04-08 20:01:00,
2013-04-08 16:07:00,70.9,51.3,30.08,SSW,212,9.1,13.8,50,0.00,CLR,,0.00,WeatherDisplay:10.37,2013-04-08 20:07:00,
2013-04-08 16:12:00,71.2,52.1,30.07,WSW,247,9.2,11.5,51,0.00,CLR,,0.00,WeatherDisplay:10.37,2013-04-08 20:12:00,
2013-04-08 16:17:00,71.2,52.7,30.08,WSW,243,11.7,13.8,52,0.00,CLR,,0.00,WeatherDisplay:10.37,2013-04-08 20:17:00,
2013-04-08 16:22:00,70.9,51.3,30.08,SW,217,7.8,19.6,50,0.00,CLR,,0.00,WeatherDisplay:10.37,2013-04-08 20:22:00,
2013-04-08 16:27:00,71.3,50.6,30.08,SW,220,13.4,21.9,48,0.00,CLR,,0.00,WeatherDisplay:10.37,2013-04-08 20:27:00,
2013-04-08 16:32:00,71.1,51.5,30.07,SW,221,7.0,10.4,50,0.00,CLR,,0.00,WeatherDisplay:10.37,2013-04-08 20:32:00,
2013-04-08 16:37:00,71.2,52.7,30.07,SSW,202,7.0,13.8,52,0.00,CLR,,0.00,WeatherDisplay:10.37,2013-04-08 20:37:00,
2013-04-08 16:42:00,70.9,52.9,30.07,SW,225,9.5,17.3,53,0.00,CLR,,0.00,WeatherDisplay:10.37,2013-04-08 20:42:00,
2013-04-08 16:47:00,70.6,52.6,30.07,South,170,5.0,11.5,53,0.00,CLR,,0.00,WeatherDisplay:10.37,2013-04-08 20:47:00,
2013-04-08 16:52:00,70.7,52.2,30.07,SSW,211,7.0,13.8,52,0.00,CLR,,0.00,WeatherDisplay:10.37,2013-04-08 20:52:00,
2013-04-08 16:57:00,70.7,51.7,30.07,SSW,202,8.1,11.5,51,0.00,CLR,,0.00,WeatherDisplay:10.37,2013-04-08 20:57:00,
2013-04-08 17:02:00,70.6,52.6,30.07,South,175,8.8,13.0,53,0.00,CLR,,0.00,WeatherDisplay:10.37,2013-04-08 21:02:00,
2013-04-08 17:07:00,70.4,51.9,30.07,SW,222,9.9,15.0,52,0.00,CLR,,0.00,WeatherDisplay:10.37,2013-04-08 21:07:00,
2013-04-08 17:12:00,70.2,52.3,30.07,SSE,162,7.9,12.7,53,0.00,CLR,,0.00,WeatherDisplay:10.37,2013-04-08 21:12:00,
2013-04-08 17:17:00,70.2,53.3,30.07,SSW,206,6.3,13.8,55,0.00,CLR,,0.00,WeatherDisplay:10.37,2013-04-08 21:17:00,
2013-04-08 17:22:00,70.4,51.9,30.06,SSW,202,6.4,13.8,52,0.00,CLR,,0.00,WeatherDisplay:10.37,2013-04-08 21:22:00,
2013-04-08 17:27:00,70.6,53.1,30.07,SSW,194,7.0,17.0,54,0.00,CLR,,0.00,WeatherDisplay:10.37,2013-04-08 21:27:00,
2013-04-08 17:32:00,70.5,52.0,30.07,SW,217,9.5,13.8,52,0.00,CLR,,0.00,WeatherDisplay:10.37,2013-04-08 21:32:00,
2013-04-08 17:37:00,70.7,52.7,30.07,South,183,7.9,10.4,53,0.00,CLR,,0.00,WeatherDisplay:10.37,2013-04-08 21:37:00,
2013-04-08 17:42:00,70.8,52.3,30.07,SSW,202,11.6,19.6,52,0.00,CLR,,0.00,WeatherDisplay:10.37,2013-04-08 21:42:00,
2013-04-08 17:48:00,70.5,53.1,30.07,SW,227,8.4,12.7,54,0.00,CLR,,0.00,WeatherDisplay:10.37,2013-04-08 21:48:00,
2013-04-08 17:53:00,70.3,51.8,30.07,South,177,8.3,11.5,52,0.00,CLR,,0.00,WeatherDisplay:10.37,2013-04-08 21:53:00,
2013-04-08 17:58:00,70.3,51.8,30.07,South,185,8.8,12.7,52,0.00,CLR,,0.00,WeatherDisplay:10.37,2013-04-08 21:58:00,
2013-04-08 18:03:00,70.3,51.8,30.07,South,177,8.5,17.3,52,0.00,CLR,,0.00,WeatherDisplay:10.37,2013-04-08 22:03:00,
2013-04-08 18:08:00,70.4,50.9,30.07,South,177,11.7,18.0,50,0.00,CLR,,0.00,WeatherDisplay:10.37,2013-04-08 22:08:00,
2013-04-08 18:13:00,70.4,51.9,30.07,WSW,239,9.4,15.0,52,0.00,CLR,,0.00,WeatherDisplay:10.37,2013-04-08 22:13:00,
2013-04-08 18:18:00,70.3,50.2,30.07,SW,233,12.1,13.8,49,0.00,CLR,,0.00,WeatherDisplay:10.37,2013-04-08 22:18:00,
2013-04-08 18:23:00,70.4,50.3,30.08,SW,235,11.6,16.1,49,0.00,CLR,,0.00,WeatherDisplay:10.37,2013-04-08 22:23:00,
2013-04-08 18:28:00,70.6,51.1,30.08,WSW,239,7.0,11.5,50,0.00,CLR,,0.00,WeatherDisplay:10.37,2013-04-08 22:28:00,
2013-04-08 18:33:00,70.5,51.5,30.08,SW,221,4.6,12.0,51,0.00,CLR,,0.00,WeatherDisplay:10.37,2013-04-08 22:33:00,
2013-04-08 18:38:00,70.2,50.7,30.08,SSW,210,9.1,15.0,50,0.00,CLR,,0.00,WeatherDisplay:10.37,2013-04-08 22:38:00,
2013-04-08 18:43:00,69.8,50.9,30.08,SW,223,9.4,11.5,51,0.00,CLR,,0.00,WeatherDisplay:10.37,2013-04-08 22:43:00,
2013-04-08 18:48:00,69.5,51.6,30.08,SSW,206,2.3,7.0,53,0.00,CLR,,0.00,WeatherDisplay:10.37,2013-04-08 22:48:00,
2013-04-08 18:53:00,69.2,51.8,30.08,WSW,258,3.9,5.8,54,0.00,CLR,,0.00,WeatherDisplay:10.37,2013-04-08 22:53:00,
2013-04-08 18:58:00,68.8,51.5,30.08,SSW,194,2.4,6.9,54,0.00,CLR,,0.00,WeatherDisplay:10.37,2013-04-08 22:58:00,
2013-04-08 19:03:00,68.5,51.7,30.08,South,169,3.3,6.0,55,0.00,CLR,,0.00,WeatherDisplay:10.37,2013-04-08 23:03:00,
2013-04-08 19:08:00,68.2,51.4,30.08,SW,219,2.6,5.8,55,0.00,CLR,,0.00,WeatherDisplay:10.37,2013-04-08 23:08:00,
2013-04-08 19:13:00,68.1,51.8,30.08,South,182,2.7,4.6,56,0.00,CLR,,0.00,WeatherDisplay:10.37,2013-04-08 23:13:00,
2013-04-08 19:18:00,68.1,51.8,30.08,SW,224,6.4,11.5,56,0.00,CLR,,0.00,WeatherDisplay:10.37,2013-04-08 23:18:00,
2013-04-08 19:23:00,68.0,51.7,30.08,SSW,212,3.7,9.0,56,0.00,CLR,,0.00,WeatherDisplay:10.37,2013-04-08 23:23:00,
2013-04-08 19:28:00,68.0,51.7,30.08,SW,222,6.2,12.7,56,0.00,CLR,,0.00,WeatherDisplay:10.37,2013-04-08 23:28:00,
2013-04-08 19:33:00,67.8,51.5,30.08,SSW,209,1.2,5.8,56,0.00,CLR,,0.00,WeatherDisplay:10.37,2013-04-08 23:33:00,
2013-04-08 19:38:00,67.6,51.8,30.08,SSW,206,7.5,11.5,57,0.00,CLR,,0.00,WeatherDisplay:10.37,2013-04-08 23:38:00,
2013-04-08 19:43:00,67.4,51.6,30.08,SW,232,5.0,11.5,57,0.00,CLR,,0.00,WeatherDisplay:10.37,2013-04-08 23:43:00,
2013-04-08 19:48:00,67.1,51.4,30.08,SW,223,2.4,4.6,57,0.00,CLR,,0.00,WeatherDisplay:10.37,2013-04-08 23:48:00,
2013-04-08 19:53:00,67.0,51.3,30.08,SW,223,9.3,13.8,57,0.00,CLR,,0.00,WeatherDisplay:10.37,2013-04-08 23:53:00,
2013-04-08 19:58:00,66.8,51.5,30.08,SSW,213,1.2,4.6,58,0.00,CLR,,0.00,WeatherDisplay:10.37,2013-04-08 23:58:00,
2013-04-08 20:03:00,66.6,51.4,30.09,SW,215,2.8,8.1,58,0.00,,,0.00,WeatherDisplay:10.37,2013-04-09 00:03:00,
2013-04-08 20:08:00,66.4,51.2,30.09,South,189,4.0,6.9,58,0.00,,,0.00,WeatherDisplay:10.37,2013-04-09 00:08:00,
2013-04-08 20:13:00,66.3,51.1,30.09,SSW,208,2.0,3.5,58,0.00,,,0.00,WeatherDisplay:10.37,2013-04-09 00:13:00,
2013-04-08 20:18:00,66.1,51.4,30.09,SW,217,0.2,2.3,59,0.00,,,0.00,WeatherDisplay:10.37,2013-04-09 00:18:00,
2013-04-08 20:23:00,65.9,51.2,30.09,SW,233,3.8,10.0,59,0.00,,,0.00,WeatherDisplay:10.37,2013-04-09 00:23:00,
2013-04-08 20:28:00,65.7,51.4,30.09,SW,221,0.0,0.0,60,0.00,,,0.00,WeatherDisplay:10.37,2013-04-09 00:28:00,
2013-04-08 20:33:00,65.5,51.2,30.09,SW,221,0.7,6.0,60,0.00,,,0.00,WeatherDisplay:10.37,2013-04-09 00:33:00,
2013-04-08 20:38:00,65.6,51.3,30.09,SSW,209,3.9,9.2,60,0.00,,,0.00,WeatherDisplay:10.37,2013-04-09 00:38:00,
2013-04-08 20:43:00,65.5,51.2,30.09,SSW,208,0.9,8.1,60,0.00,,,0.00,WeatherDisplay:10.37,2013-04-09 00:43:00,
2013-04-08 20:49:00,65.3,51.1,30.09,SSW,208,0.9,6.9,60,0.00,,,0.00,WeatherDisplay:10.37,2013-04-09 00:49:00,
2013-04-08 20:54:00,65.2,51.0,30.10,SW,225,2.5,4.6,60,0.00,,,0.00,WeatherDisplay:10.37,2013-04-09 00:54:00,
2013-04-08 20:59:00,65.2,51.0,30.10,SW,223,3.1,4.6,60,0.00,,,0.00,WeatherDisplay:10.37,2013-04-09 00:59:00,
2013-04-08 21:04:00,65.1,51.3,30.10,SW,223,0.7,4.6,61,0.00,,,0.00,WeatherDisplay:10.37,2013-04-09 01:04:00,
2013-04-08 21:09:00,65.1,51.3,30.10,SSW,206,0.2,5.8,61,0.00,,,0.00,WeatherDisplay:10.37,2013-04-09 01:09:00,
2013-04-08 21:14:00,64.9,51.1,30.11,SSW,207,0.0,2.3,61,0.00,,,0.00,WeatherDisplay:10.37,2013-04-09 01:14:00,
2013-04-08 21:19:00,64.8,51.5,30.11,SW,233,1.2,1.2,62,0.00,,,0.00,WeatherDisplay:10.37,2013-04-09 01:19:00,
2013-04-08 21:24:00,64.6,51.3,30.11,SW,215,0.0,0.0,62,0.00,,,0.00,WeatherDisplay:10.37,2013-04-09 01:24:00,
2013-04-08 21:30:00,64.4,51.1,30.11,SW,233,1.0,4.6,62,0.00,,,0.00,WeatherDisplay:10.37,2013-04-09 01:30:00,
2013-04-08 21:35:00,64.3,51.4,30.11,SW,227,1.2,6.0,63,0.00,,,0.00,WeatherDisplay:10.37,2013-04-09 01:35:00,
2013-04-08 21:40:00,64.1,51.2,30.11,SW,223,0.8,4.0,63,0.00,,,0.00,WeatherDisplay:10.37,2013-04-09 01:40:00,
2013-04-08 21:45:00,64.0,51.1,30.11,SW,215,0.6,3.5,63,0.00,,,0.00,WeatherDisplay:10.37,2013-04-09 01:45:00,
2013-04-08 21:50:00,64.0,51.1,30.11,SSW,201,3.5,8.0,63,0.00,,,0.00,WeatherDisplay:10.37,2013-04-09 01:50:00,
2013-04-08 21:55:00,64.3,51.4,30.11,SW,216,5.8,11.5,63,0.00,,,0.00,WeatherDisplay:10.37,2013-04-09 01:55:00,
2013-04-08 22:00:00,64.5,51.2,30.11,SW,219,1.1,3.5,62,0.00,,,0.00,WeatherDisplay:10.37,2013-04-09 02:00:00,
2013-04-08 22:05:00,64.5,51.2,30.11,SSW,212,0.0,1.2,62,0.00,,,0.00,WeatherDisplay:10.37,2013-04-09 02:05:00,
2013-04-08 22:10:00,64.3,51.0,30.11,SSW,212,0.0,0.0,62,0.00,,,0.00,WeatherDisplay:10.37,2013-04-09 02:10:00,
2013-04-08 22:15:00,64.2,51.3,30.11,SSW,212,0.0,0.0,63,0.00,,,0.00,WeatherDisplay:10.37,2013-04-09 02:15:00,
2013-04-08 22:20:00,64.0,51.1,30.11,SSW,212,0.0,0.0,63,0.00,,,0.00,WeatherDisplay:10.37,2013-04-09 02:20:00,
2013-04-08 22:25:00,63.6,50.8,30.11,SSW,212,0.0,0.0,63,0.00,,,0.00,WeatherDisplay:10.37,2013-04-09 02:25:00,
2013-04-08 22:30:00,63.3,50.9,30.11,SSW,212,0.0,0.0,64,0.00,,,0.00,WeatherDisplay:10.37,2013-04-09 02:30:00,
2013-04-08 22:35:00,63.0,51.0,30.12,SSW,212,0.0,0.0,65,0.00,,,0.00,WeatherDisplay:10.37,2013-04-09 02:35:00,
2013-04-08 22:40:00,62.3,50.8,30.12,SSW,212,0.0,0.0,66,0.00,,,0.00,WeatherDisplay:10.37,2013-04-09 02:40:00,
2013-04-08 22:45:00,61.7,50.6,30.12,SSW,212,0.0,0.0,67,0.00,,,0.00,WeatherDisplay:10.37,2013-04-09 02:45:00,
2013-04-08 22:50:00,61.1,50.5,30.12,SSW,212,0.0,0.0,68,0.00,,,0.00,WeatherDisplay:10.37,2013-04-09 02:50:00,
2013-04-08 22:55:00,60.5,50.3,30.12,SSW,212,0.0,0.0,69,0.00,,,0.00,WeatherDisplay:10.37,2013-04-09 02:55:00,
2013-04-08 23:00:00,60.0,50.2,30.12,SSW,212,0.0,0.0,70,0.00,,,0.00,WeatherDisplay:10.37,2013-04-09 03:00:00,
2013-04-08 23:05:00,59.8,50.4,30.11,SSW,212,0.0,0.0,71,0.00,,,0.00,WeatherDisplay:10.37,2013-04-09 03:05:00,
2013-04-08 23:10:00,60.2,50.4,30.11,SSW,212,0.0,0.0,70,0.00,,,0.00,WeatherDisplay:10.37,2013-04-09 03:10:00,
2013-04-08 23:15:00,60.5,50.7,30.12,SSW,212,0.0,0.0,70,0.00,,,0.00,WeatherDisplay:10.37,2013-04-09 03:15:00,
2013-04-08 23:20:00,60.1,50.3,30.12,SSW,212,0.0,0.0,70,0.00,,,0.00,WeatherDisplay:10.37,2013-04-09 03:20:00,
2013-04-08 23:25:00,59.3,50.3,30.12,SSW,212,0.0,0.0,72,0.00,,,0.00,WeatherDisplay:10.37,2013-04-09 03:25:00,
2013-04-08 23:30:00,59.0,50.4,30.12,SSW,212,0.0,1.2,73,0.00,,,0.00,WeatherDisplay:10.37,2013-04-09 03:30:00,
2013-04-08 23:35:00,58.0,50.5,30.11,SSW,212,0.0,0.0,76,0.00,,,0.00,WeatherDisplay:10.37,2013-04-09 03:35:00,
2013-04-08 23:40:00,57.5,49.6,30.11,SSW,212,0.0,0.0,75,0.00,,,0.00,WeatherDisplay:10.37,2013-04-09 03:40:00,
2013-04-08 23:45:00,57.1,49.6,30.11,SSW,212,0.0,0.0,76,0.00,,,0.00,WeatherDisplay:10.37,2013-04-09 03:45:00,
2013-04-08 23:50:00,56.3,49.5,30.11,SSW,212,0.0,0.0,78,0.00,,,0.00,WeatherDisplay:10.37,2013-04-09 03:50:00,
2013-04-08 23:55:00,55.7,49.3,30.11,SSW,212,0.0,0.0,79,0.00,,,0.00,WeatherDisplay:10.37,2013-04-09 03:55:00,